createdAt,value
2018-06-03T00:01:21.400Z,86.40
2018-06-03T00:06:24.627Z,86.50
2018-06-03T00:11:27.118Z,86.40
2018-06-03T00:16:29.575Z,86.60
2018-06-03T00:21:42.800Z,86.70
2018-06-03T00:31:54.948Z,86.60
2018-06-03T00:36:57.403Z,86.50
2018-06-03T00:41:59.858Z,86.60
2018-06-03T00:47:03.194Z,86.30
2018-06-03T00:52:06.409Z,86.90
2018-06-03T00:57:09.568Z,86.70
2018-06-03T01:02:12.033Z,86.90
2018-06-03T01:07:14.677Z,86.90
2018-06-03T01:12:17.117Z,86.70
2018-06-03T01:17:38.933Z,86.90
2018-06-03T01:22:41.366Z,87.00
2018-06-03T01:27:43.891Z,87.10
2018-06-03T01:32:46.373Z,86.90
2018-06-03T01:37:49.799Z,87.10
2018-06-03T01:42:52.357Z,87.00
2018-06-03T01:47:54.790Z,86.70
2018-06-03T01:53:19.434Z,86.60
2018-06-03T01:58:22.645Z,86.60
2018-06-03T02:03:27.869Z,86.50
2018-06-03T02:08:30.413Z,86.60
2018-06-03T02:13:32.958Z,86.60
2018-06-03T02:18:35.509Z,86.30
2018-06-03T02:23:38.070Z,86.10
2018-06-03T02:28:40.545Z,86.00
2018-06-03T02:33:43.002Z,86.20
2018-06-03T02:38:45.450Z,86.40
2018-06-03T02:43:48.679Z,86.90
2018-06-03T02:48:51.240Z,86.80
2018-06-03T02:53:53.682Z,86.60
2018-06-03T02:58:57.196Z,86.80
2018-06-03T03:03:59.965Z,86.90
2018-06-03T03:09:02.435Z,87.10
2018-06-03T03:14:05.714Z,87.30
2018-06-03T03:19:08.239Z,87.20
2018-06-03T03:24:10.827Z,87.70
2018-06-03T03:29:13.956Z,87.70
2018-06-03T03:39:38.546Z,87.90
2018-06-03T03:44:40.993Z,88.00
2018-06-03T03:49:44.347Z,87.90
2018-06-03T03:55:15.530Z,88.00
2018-06-03T04:00:18.087Z,88.40
2018-06-03T04:05:46.188Z,88.40
2018-06-03T04:10:48.625Z,88.40
2018-06-03T04:15:51.081Z,88.50
2018-06-03T04:20:53.546Z,88.30
2018-06-03T04:25:56.908Z,88.40
2018-06-03T04:30:59.373Z,88.30
2018-06-03T04:36:01.823Z,88.40
2018-06-03T04:41:05.042Z,88.80
2018-06-03T04:46:08.267Z,88.80
2018-06-03T04:51:11.494Z,88.80
2018-06-03T04:56:14.908Z,89.00
2018-06-03T05:01:18.117Z,89.00
2018-06-03T05:06:20.629Z,88.90
2018-06-03T05:11:23.085Z,88.90
2018-06-03T05:16:26.320Z,88.90
2018-06-03T05:21:28.775Z,88.90
2018-06-03T05:26:32.037Z,89.90
2018-06-03T05:31:34.488Z,89.00
2018-06-03T05:36:37.707Z,89.70
2018-06-03T05:41:40.927Z,88.70
2018-06-03T05:46:43.454Z,88.70
2018-06-03T05:51:46.103Z,88.30
2018-06-03T05:56:48.543Z,88.60
2018-06-03T06:02:05.274Z,88.90
2018-06-03T06:07:07.851Z,88.90
2018-06-03T06:12:15.605Z,88.90
2018-06-03T06:17:18.049Z,88.70
2018-06-03T06:22:20.842Z,88.60
2018-06-03T06:27:28.238Z,87.90
2018-06-03T06:32:36.524Z,87.50
2018-06-03T06:37:39.119Z,87.30
2018-06-03T06:42:41.577Z,87.30
2018-06-03T06:47:44.529Z,87.00
2018-06-03T06:52:48.469Z,86.50
2018-06-03T06:57:51.702Z,86.80
2018-06-03T07:02:54.928Z,85.50
2018-06-03T07:08:00.128Z,85.40
2018-06-03T07:13:02.730Z,85.30
2018-06-03T07:18:05.189Z,85.10
2018-06-03T07:23:07.668Z,85.00
2018-06-03T07:28:10.162Z,85.00
2018-06-03T07:33:12.617Z,84.60
2018-06-03T07:38:15.135Z,84.10
2018-06-03T07:43:18.317Z,83.40
2018-06-03T07:48:20.766Z,83.30
2018-06-03T07:53:23.371Z,82.90
2018-06-03T07:58:41.223Z,82.90
2018-06-03T08:03:43.714Z,83.10
2018-06-03T08:08:46.162Z,83.30
2018-06-03T08:13:49.446Z,82.20
2018-06-03T08:18:51.837Z,82.20
2018-06-03T08:24:02.989Z,81.10
2018-06-03T08:29:05.473Z,80.30
2018-06-03T08:34:07.969Z,79.10
2018-06-03T08:39:10.527Z,77.80
2018-06-03T08:49:40.941Z,73.90
2018-06-03T08:54:43.407Z,72.90
2018-06-03T08:59:46.654Z,71.70
2018-06-03T09:04:49.546Z,71.50
2018-06-03T09:09:52.013Z,72.10
2018-06-03T09:14:54.457Z,71.30
2018-06-03T09:19:56.917Z,70.50
2018-06-03T09:24:59.417Z,69.80
2018-06-03T09:30:01.914Z,69.40
2018-06-03T09:35:04.380Z,67.90
2018-06-03T09:40:07.743Z,65.90
2018-06-03T09:45:10.185Z,65.70
2018-06-03T09:50:13.422Z,66.30
2018-06-03T09:55:15.925Z,66.30
2018-06-03T10:00:18.437Z,66.30
2018-06-03T10:05:20.851Z,65.80
2018-06-03T10:10:23.401Z,65.20
2018-06-03T10:15:26.104Z,64.30
2018-06-03T10:20:28.556Z,64.30
2018-06-03T10:25:31.900Z,64.70
2018-06-03T10:30:34.398Z,64.40
2018-06-03T10:35:36.852Z,63.90
2018-06-03T10:40:39.301Z,63.90
2018-06-03T10:46:09.275Z,64.20
2018-06-03T10:51:11.814Z,64.80
2018-06-03T10:56:14.321Z,65.30
2018-06-03T11:01:16.815Z,65.40
2018-06-03T11:06:19.266Z,65.70
2018-06-03T11:11:22.509Z,64.70
2018-06-03T11:16:25.773Z,64.50
2018-06-03T11:21:28.243Z,64.00
2018-06-03T11:26:30.690Z,62.90
2018-06-03T11:31:33.292Z,63.00
2018-06-03T11:36:35.773Z,63.00
2018-06-03T11:41:38.972Z,62.80
2018-06-03T11:46:42.202Z,62.00
2018-06-03T11:51:45.222Z,62.00
2018-06-03T12:03:05.758Z,61.90
2018-06-03T12:08:08.843Z,61.10
2018-06-03T12:13:30.708Z,62.60
2018-06-03T12:23:36.606Z,62.30
2018-06-03T12:28:39.793Z,61.40
2018-06-03T12:33:44.717Z,61.30
2018-06-03T12:38:48.013Z,60.30
2018-06-03T12:43:51.103Z,59.80
2018-06-03T12:48:54.163Z,60.60
2018-06-03T12:53:57.257Z,60.80
2018-06-03T12:59:01.786Z,60.00
2018-06-03T13:04:06.605Z,59.70
2018-06-03T13:14:12.580Z,59.30
2018-06-03T13:19:15.709Z,59.30
2018-06-03T13:24:18.817Z,59.60
2018-06-03T13:29:21.874Z,58.50
2018-06-03T13:34:25.993Z,58.50
2018-06-03T13:39:32.206Z,58.00
2018-06-03T13:44:36.200Z,58.50
2018-06-03T13:49:39.328Z,57.30
2018-06-03T13:54:42.469Z,57.70
2018-06-03T13:59:46.618Z,56.80
2018-06-03T14:04:49.662Z,57.30
2018-06-03T14:09:52.822Z,57.40
2018-06-03T14:14:55.917Z,57.90
2018-06-03T14:25:10.743Z,56.50
2018-06-03T14:30:13.789Z,56.60
2018-06-03T14:35:16.847Z,55.90
2018-06-03T14:40:20.681Z,55.90
2018-06-03T14:45:23.729Z,56.80
2018-06-03T14:50:32.705Z,56.00
2018-06-03T14:55:35.709Z,56.00
2018-06-03T15:00:38.713Z,55.80
2018-06-03T15:05:41.774Z,57.30
2018-06-03T15:10:44.848Z,57.30
2018-06-03T15:15:47.909Z,57.50
2018-06-03T15:20:50.988Z,58.20
2018-06-03T15:25:54.091Z,59.10
2018-06-03T15:30:57.149Z,59.20
2018-06-03T15:36:03.471Z,59.50
2018-06-03T15:41:06.797Z,60.00
2018-06-03T15:46:10.547Z,60.50
2018-06-03T15:51:13.608Z,60.30
2018-06-03T15:56:16.665Z,61.00
2018-06-03T16:01:21.305Z,60.10
2018-06-03T16:06:24.457Z,60.20
2018-06-03T16:11:27.541Z,61.20
2018-06-03T16:16:30.618Z,60.50
2018-06-03T16:21:33.682Z,60.60
2018-06-03T16:26:36.917Z,60.90
2018-06-03T16:31:40.147Z,60.00
2018-06-03T16:42:45.849Z,60.50
2018-06-03T16:47:49.220Z,61.10
2018-06-03T16:52:52.282Z,62.30
2018-06-03T16:57:55.357Z,62.80
2018-06-03T17:03:06.772Z,62.80
2018-06-03T17:08:12.821Z,63.00
2018-06-03T17:13:16.592Z,62.90
2018-06-03T17:18:19.618Z,62.20
2018-06-03T17:23:39.479Z,61.50
2018-06-03T17:28:42.545Z,61.20
2018-06-03T17:33:45.588Z,60.90
2018-06-03T17:38:48.768Z,61.10
2018-06-03T17:43:51.830Z,61.40
2018-06-03T17:48:54.889Z,61.60
2018-06-03T17:53:57.933Z,61.90
2018-06-03T17:59:01.030Z,63.00
2018-06-03T18:04:04.928Z,63.30
2018-06-03T18:09:08.515Z,64.00
2018-06-03T18:14:11.573Z,64.10
2018-06-03T18:19:14.638Z,64.50
2018-06-03T18:24:17.698Z,64.50
2018-06-03T18:29:20.750Z,65.50
2018-06-03T18:34:23.861Z,65.90
2018-06-03T18:39:26.908Z,65.50
2018-06-03T18:44:29.957Z,67.90
2018-06-03T18:49:33.005Z,68.80
2018-06-03T18:59:39.153Z,71.00
2018-06-03T19:04:42.197Z,71.30
2018-06-03T19:09:45.666Z,71.10
2018-06-03T19:15:04.483Z,71.50
2018-06-03T19:20:13.618Z,71.80
2018-06-03T19:30:28.245Z,71.80
2018-06-03T19:35:31.428Z,72.30
2018-06-03T19:40:34.557Z,72.90
2018-06-03T19:45:37.609Z,73.70
2018-06-03T19:55:44.692Z,74.50
2018-06-03T20:00:47.842Z,75.00
2018-06-03T20:10:53.865Z,75.70
2018-06-03T20:15:56.974Z,75.80
2018-06-03T20:21:00.024Z,76.10
2018-06-03T20:26:03.136Z,76.40
2018-06-03T20:31:07.394Z,76.90
2018-06-03T20:36:10.844Z,77.50
2018-06-03T20:41:13.921Z,77.70
2018-06-03T20:46:16.963Z,77.50
2018-06-03T20:51:20.013Z,77.60
2018-06-03T20:56:23.152Z,77.90
2018-06-03T21:01:26.181Z,78.40
2018-06-03T21:06:29.233Z,78.70
2018-06-03T21:11:32.304Z,79.10
2018-06-03T21:16:36.909Z,79.30
2018-06-03T21:21:39.971Z,79.60
2018-06-03T21:26:43.019Z,79.90
2018-06-03T21:31:46.069Z,80.10
2018-06-03T21:36:49.114Z,80.50
2018-06-03T21:41:52.180Z,80.70
2018-06-03T21:46:55.226Z,80.70
2018-06-03T21:52:00.066Z,80.90
2018-06-03T21:57:03.099Z,81.10
2018-06-03T22:02:06.149Z,81.00
2018-06-03T22:07:09.204Z,81.50
2018-06-03T22:12:13.262Z,81.10
2018-06-03T22:17:16.433Z,81.60
2018-06-03T22:22:19.459Z,81.10
2018-06-03T22:27:22.509Z,81.30
2018-06-03T22:32:27.344Z,81.60
2018-06-03T22:37:42.377Z,81.70
2018-06-03T22:42:45.902Z,80.90
2018-06-03T22:47:48.961Z,81.80
2018-06-03T22:52:52.678Z,82.10
2018-06-03T22:57:55.904Z,82.50
2018-06-03T23:03:04.465Z,82.50
2018-06-03T23:08:07.517Z,82.20
2018-06-03T23:13:10.577Z,82.00
2018-06-03T23:18:13.717Z,81.40
2018-06-03T23:23:39.959Z,81.00
2018-06-03T23:28:42.986Z,81.60
2018-06-03T23:34:09.466Z,81.90
2018-06-03T23:39:37.738Z,81.60
2018-06-03T23:44:40.788Z,82.50
2018-06-03T23:49:43.905Z,82.80
2018-06-03T23:54:46.969Z,82.40
2018-06-03T23:59:53.457Z,82.40
